sensor_id;sensor_type;location;lat;lon;timestamp;P1;durP1;ratioP1;P2;durP2;ratioP2
77168;SDS011;66281;45.114;20.730;2023-05-16T00:07:07;15.55;;;9.05;;
77168;SDS011;66281;45.114;20.730;2023-05-16T00:17:08;20.65;;;8.90;;
77168;SDS011;66281;45.114;20.730;2023-05-16T00:27:08;14.13;;;8.70;;
77168;SDS011;66281;45.114;20.730;2023-05-16T00:37:09;13.48;;;8.63;;
77168;SDS011;66281;45.114;20.730;2023-05-16T00:47:10;17.70;;;9.60;;
77168;SDS011;66281;45.114;20.730;2023-05-16T00:57:11;13.90;;;9.00;;
77168;SDS011;66281;45.114;20.730;2023-05-16T01:07:11;13.27;;;8.57;;
77168;SDS011;66281;45.114;20.730;2023-05-16T01:17:20;15.32;;;9.75;;
77168;SDS011;66281;45.114;20.730;2023-05-16T01:27:23;11.90;;;9.20;;
77168;SDS011;66281;45.114;20.730;2023-05-16T01:37:29;16.20;;;8.60;;
77168;SDS011;66281;45.114;20.730;2023-05-16T01:47:35;18.77;;;11.43;;
77168;SDS011;66281;45.114;20.730;2023-05-16T01:57:39;19.70;;;9.50;;
77168;SDS011;66281;45.114;20.730;2023-05-16T02:07:41;18.02;;;9.55;;
77168;SDS011;66281;45.114;20.730;2023-05-16T02:17:42;14.33;;;10.13;;
77168;SDS011;66281;45.114;20.730;2023-05-16T02:27:42;12.70;;;8.05;;
77168;SDS011;66281;45.114;20.730;2023-05-16T02:37:43;12.47;;;8.43;;
77168;SDS011;66281;45.114;20.730;2023-05-16T02:47:43;9.30;;;6.80;;
77168;SDS011;66281;45.114;20.730;2023-05-16T02:57:44;11.10;;;7.30;;
77168;SDS011;66281;45.114;20.730;2023-05-16T03:07:45;15.02;;;8.25;;
77168;SDS011;66281;45.114;20.730;2023-05-16T03:17:46;16.17;;;7.60;;
77168;SDS011;66281;45.114;20.730;2023-05-16T03:27:46;14.40;;;8.05;;
77168;SDS011;66281;45.114;20.730;2023-05-16T03:37:47;12.70;;;7.43;;
77168;SDS011;66281;45.114;20.730;2023-05-16T03:47:48;14.60;;;7.93;;
77168;SDS011;66281;45.114;20.730;2023-05-16T03:57:49;11.80;;;6.97;;
77168;SDS011;66281;45.114;20.730;2023-05-16T04:07:49;10.37;;;6.77;;
77168;SDS011;66281;45.114;20.730;2023-05-16T04:17:49;9.48;;;6.93;;
77168;SDS011;66281;45.114;20.730;2023-05-16T04:27:50;9.32;;;6.05;;
77168;SDS011;66281;45.114;20.730;2023-05-16T04:37:51;9.45;;;7.20;;
77168;SDS011;66281;45.114;20.730;2023-05-16T04:47:51;8.70;;;5.23;;
77168;SDS011;66281;45.114;20.730;2023-05-16T04:57:52;12.20;;;5.47;;
77168;SDS011;66281;45.114;20.730;2023-05-16T05:07:52;11.27;;;7.18;;
77168;SDS011;66281;45.114;20.730;2023-05-16T05:17:53;10.80;;;6.05;;
77168;SDS011;66281;45.114;20.730;2023-05-16T05:27:53;10.48;;;5.65;;
77168;SDS011;66281;45.114;20.730;2023-05-16T05:37:54;7.60;;;5.70;;
77168;SDS011;66281;45.114;20.730;2023-05-16T05:47:55;17.27;;;8.83;;
77168;SDS011;66281;45.114;20.730;2023-05-16T05:57:55;7.05;;;5.53;;
77168;SDS011;66281;45.114;20.730;2023-05-16T06:07:56;11.70;;;5.50;;
77168;SDS011;66281;45.114;20.730;2023-05-16T06:17:56;12.13;;;8.02;;
77168;SDS011;66281;45.114;20.730;2023-05-16T06:27:57;10.37;;;7.20;;
77168;SDS011;66281;45.114;20.730;2023-05-16T06:37:57;10.20;;;5.57;;
77168;SDS011;66281;45.114;20.730;2023-05-16T06:47:58;9.68;;;6.45;;
77168;SDS011;66281;45.114;20.730;2023-05-16T06:57:58;10.65;;;5.43;;
77168;SDS011;66281;45.114;20.730;2023-05-16T11:22:08;17.42;;;10.30;;
77168;SDS011;66281;45.114;20.730;2023-05-16T11:32:09;14.03;;;7.33;;
77168;SDS011;66281;45.114;20.730;2023-05-16T11:42:10;11.85;;;7.95;;
77168;SDS011;66281;45.114;20.730;2023-05-16T11:52:10;10.63;;;5.70;;
77168;SDS011;66281;45.114;20.730;2023-05-16T12:02:11;10.98;;;5.75;;
77168;SDS011;66281;45.114;20.730;2023-05-16T12:12:11;9.45;;;5.68;;
77168;SDS011;66281;45.114;20.730;2023-05-16T12:22:15;15.13;;;5.80;;
77168;SDS011;66281;45.114;20.730;2023-05-16T12:32:17;13.32;;;7.00;;
77168;SDS011;66281;45.114;20.730;2023-05-16T12:42:18;6.53;;;5.30;;
77168;SDS011;66281;45.114;20.730;2023-05-16T12:52:19;8.65;;;4.30;;
77168;SDS011;66281;45.114;20.730;2023-05-16T13:02:20;9.03;;;5.53;;
77168;SDS011;66281;45.114;20.730;2023-05-16T13:12:21;9.57;;;4.80;;
77168;SDS011;66281;45.114;20.730;2023-05-16T13:22:21;10.43;;;5.17;;
77168;SDS011;66281;45.114;20.730;2023-05-16T13:32:22;10.00;;;5.00;;
77168;SDS011;66281;45.114;20.730;2023-05-16T13:42:22;17.00;;;5.22;;
77168;SDS011;66281;45.114;20.730;2023-05-16T13:52:23;7.65;;;4.50;;
77168;SDS011;66281;45.114;20.730;2023-05-16T14:02:24;8.05;;;4.20;;
77168;SDS011;66281;45.114;20.730;2023-05-16T14:12:24;11.07;;;5.53;;
77168;SDS011;66281;45.114;20.730;2023-05-16T14:22:25;8.50;;;4.53;;
77168;SDS011;66281;45.114;20.730;2023-05-16T14:32:25;7.75;;;5.10;;
77168;SDS011;66281;45.114;20.730;2023-05-16T14:42:26;7.75;;;4.82;;
77168;SDS011;66281;45.114;20.730;2023-05-16T14:52:26;8.10;;;4.33;;
77168;SDS011;66281;45.114;20.730;2023-05-16T15:02:27;7.53;;;4.00;;
77168;SDS011;66281;45.114;20.730;2023-05-16T15:12:27;6.97;;;4.97;;
77168;SDS011;66281;45.114;20.730;2023-05-16T15:22:28;11.60;;;4.97;;
77168;SDS011;66281;45.114;20.730;2023-05-16T15:32:28;15.73;;;5.22;;
77168;SDS011;66281;45.114;20.730;2023-05-16T15:42:29;14.98;;;5.72;;
77168;SDS011;66281;45.114;20.730;2023-05-16T15:52:29;12.20;;;6.32;;
77168;SDS011;66281;45.114;20.730;2023-05-16T16:02:30;8.57;;;5.73;;
77168;SDS011;66281;45.114;20.730;2023-05-16T16:12:30;9.38;;;6.28;;
77168;SDS011;66281;45.114;20.730;2023-05-16T16:22:31;7.80;;;5.23;;
77168;SDS011;66281;45.114;20.730;2023-05-16T16:32:32;9.70;;;6.97;;
77168;SDS011;66281;45.114;20.730;2023-05-16T16:42:32;13.27;;;8.95;;
77168;SDS011;66281;45.114;20.730;2023-05-16T16:52:33;7.78;;;7.00;;
77168;SDS011;66281;45.114;20.730;2023-05-16T17:02:34;10.37;;;7.50;;
77168;SDS011;66281;45.114;20.730;2023-05-16T17:12:34;14.48;;;9.68;;
77168;SDS011;66281;45.114;20.730;2023-05-16T17:22:35;12.80;;;9.10;;
77168;SDS011;66281;45.114;20.730;2023-05-16T17:32:35;18.92;;;11.80;;
77168;SDS011;66281;45.114;20.730;2023-05-16T17:42:36;13.87;;;9.40;;
77168;SDS011;66281;45.114;20.730;2023-05-16T17:52:37;13.17;;;9.70;;
77168;SDS011;66281;45.114;20.730;2023-05-16T18:02:37;15.63;;;10.47;;
77168;SDS011;66281;45.114;20.730;2023-05-16T18:12:39;18.40;;;12.55;;
77168;SDS011;66281;45.114;20.730;2023-05-16T18:22:40;17.70;;;11.60;;
77168;SDS011;66281;45.114;20.730;2023-05-16T18:32:41;24.27;;;16.97;;
77168;SDS011;66281;45.114;20.730;2023-05-16T18:42:41;17.95;;;12.07;;
77168;SDS011;66281;45.114;20.730;2023-05-16T18:52:42;15.50;;;9.50;;
77168;SDS011;66281;45.114;20.730;2023-05-16T19:02:42;13.93;;;10.17;;
77168;SDS011;66281;45.114;20.730;2023-05-16T19:12:43;13.20;;;8.68;;
77168;SDS011;66281;45.114;20.730;2023-05-16T19:22:43;10.93;;;8.83;;
77168;SDS011;66281;45.114;20.730;2023-05-16T19:32:44;12.65;;;9.65;;
77168;SDS011;66281;45.114;20.730;2023-05-16T19:42:44;13.80;;;10.63;;
77168;SDS011;66281;45.114;20.730;2023-05-16T19:52:45;14.73;;;11.57;;
77168;SDS011;66281;45.114;20.730;2023-05-16T20:02:46;12.77;;;10.60;;
77168;SDS011;66281;45.114;20.730;2023-05-16T20:12:46;19.13;;;11.20;;
77168;SDS011;66281;45.114;20.730;2023-05-16T20:22:47;12.00;;;10.27;;
77168;SDS011;66281;45.114;20.730;2023-05-16T20:32:47;15.30;;;11.13;;
77168;SDS011;66281;45.114;20.730;2023-05-16T20:42:48;21.13;;;13.00;;
77168;SDS011;66281;45.114;20.730;2023-05-16T20:52:49;20.80;;;12.90;;
77168;SDS011;66281;45.114;20.730;2023-05-16T21:02:49;16.33;;;12.80;;
77168;SDS011;66281;45.114;20.730;2023-05-16T21:12:50;21.17;;;13.65;;
77168;SDS011;66281;45.114;20.730;2023-05-16T21:22:50;17.55;;;14.50;;
77168;SDS011;66281;45.114;20.730;2023-05-16T21:32:59;21.60;;;15.67;;
77168;SDS011;66281;45.114;20.730;2023-05-16T21:54:03;20.92;;;15.65;;
77168;SDS011;66281;45.114;20.730;2023-05-16T22:04:03;20.10;;;14.50;;
77168;SDS011;66281;45.114;20.730;2023-05-16T22:25:09;20.90;;;14.97;;
77168;SDS011;66281;45.114;20.730;2023-05-16T22:35:09;16.75;;;13.80;;
77168;SDS011;66281;45.114;20.730;2023-05-16T22:45:10;18.02;;;14.75;;
77168;SDS011;66281;45.114;20.730;2023-05-16T22:55:11;19.37;;;14.67;;
77168;SDS011;66281;45.114;20.730;2023-05-16T23:05:11;22.57;;;14.13;;
77168;SDS011;66281;45.114;20.730;2023-05-16T23:15:12;18.70;;;14.87;;
77168;SDS011;66281;45.114;20.730;2023-05-16T23:25:15;20.13;;;15.02;;
77168;SDS011;66281;45.114;20.730;2023-05-16T23:57:40;20.37;;;15.37;;
